Terminal Aerodrome Forecast
Issued by NWS Blacksburg, VA

Home | Current Version | Previous Version | Text Only | Print | Product List | Glossary On
Versions: 1 2 3 4 5 6 7 8 9 10 11 12 13 14 15 16 17 18 19 20 21 22 23 24
000
FTUS41 KRNK 311140
TAFDAN
TAF
KDAN 311140Z 3112/0112 00000KT P6SM -SHRA SCT040 BKN060
     FM311800 18005KT P6SM BKN050
     FM010000 14003KT P6SM SCT250
     FM010600 14003KT 4SM BR SCT250
     FM010900 00000KT 1SM BR SCT250=

USA.gov is the U.S. government's official web portal to all federal, state and local government web resources and services.